Seaford, VA (23696)

11:07 AM EDT on June 02, 2015 (GMT -0400)
Goose Creek | | Change Station
CLOSE
Current Station
Personal Weather Station
Location: Seaford, VA
Elevation: 0 ft
Nearby Weather Stations

Elev 0 ft 37.19 °N, 76.43 °W | Updated 7 seconds ago

Clear
Clear
80.1 °F
Feels Like 83 °F
N
3.0
Wind Variable Wind from West
Gusts 3.0 mph

Today
High -- | Low -- °F
--% Chance of Precip.
Yesterday
High -- | Low -- °F
Precip. -- in
5:46 AM 8:20 PM
Full, 100% visible
Pressure 30.02 in
Visibility 10.0 miles
Clouds Scattered Clouds 2500 ft
Heat Index 83 °F
Dew Point 69 °F
Humidity 70%
Rainfall 0.00 in
Snow Depth Not available.
UV 7 out of 12
Pollen 4.20 out of 12
Air Quality Not available.
Flu Activity Sporadic
METAR KPHF 021454Z 23007KT 10SM SCT025 29/21 A3002 RMK AO2 SLP164 T02940206 51007

More Conditions Fewer Conditions

Pressure 30.02 in
Visibility 10.0 miles
Clouds Scattered Clouds 2500 ft
Heat Index 83 °F
Dew Point 69 °F
Humidity 70%
Rainfall 0.00 in
Snow Depth Not available.
UV 7 out of 12
Pollen 4.20 out of 12
Air Quality Not available.
Flu Activity Sporadic
METAR KPHF 021454Z 23007KT 10SM SCT025 29/21 A3002 RMK AO2 SLP164 T02940206 51007

More Conditions Fewer Conditions

10-Day Weather Forecast

Almanac

Astronomy

Jun. 02, 2015 Rise Set
Actual Time
Civil Twilight
Nautical Twilight
Astronomical Twilight
Moon
Length of Visible Light
Length of Day
Tomorrow will be .
, % of the Moon is Illuminated

Today's Extremes

State Highs State Lows

Community

WunderPhotos

Upload Photos

1,825,934 photos uploaded!

WunderBlogs® & News

Nearby

Air Quality

  Air Quality AQ Index Pollutant
Not available.

Snow Depth

Station Depth Elevation

Earthquake Activity

City Distance Mag. Time & Date
Minimum magnitude displayed is 2.5.

Coastal Water Temperatures

Place Temperature

Stations

Nearby Weather Stations

Station Location Temp. Windchill Dew Point Humidity Wind Precip. Elev Updated Type